Time;durP1;ratioP1;P1;durP2;ratioP2;P2;SDS_P1;SDS_P2;PMS_P1;PMS_P2;Temp;Humidity;BMP_temperature;BMP_pressure;BME280_temperature;BME280_humidity;BME280_pressure;Samples;Min_cycle;Max_cycle;Signal;HPM_P1;HPM_P2
2020/12/31 00:00:33;;;;;;;95.97;41.15;;;;;;;5.99;83.34;98249.36;1810897;78;21271;-81
2020/12/31 00:03:03;;;;;;;93.92;38.42;;;;;;;5.94;83.16;98253.71;1806992;78;21153;-81
2020/12/31 00:05:30;;;;;;;85.83;37.15;;;;;;;5.90;83.58;98253.36;1817149;78;21244;-81
2020/12/31 00:07:57;;;;;;;110.42;42.58;;;;;;;5.85;84.19;98257.34;1810800;78;21291;-81
2020/12/31 00:10:26;;;;;;;103.87;41.83;;;;;;;5.82;83.93;98265.12;1814433;78;21134;-82
2020/12/31 00:12:55;;;;;;;94.67;37.08;;;;;;;5.81;84.02;98271.17;1818537;78;21154;-83
2020/12/31 00:15:23;;;;;;;78.40;34.08;;;;;;;5.80;83.61;98266.03;1797722;79;21303;-82
2020/12/31 00:17:51;;;;;;;71.22;31.87;;;;;;;5.77;83.52;98266.51;1819305;77;21139;-82
2020/12/31 00:20:18;;;;;;;74.82;32.25;;;;;;;5.77;84.23;98270.37;1811819;78;21159;-81
2020/12/31 00:22:45;;;;;;;71.53;32.08;;;;;;;5.77;85.09;98276.83;1817390;78;21257;-81
2020/12/31 00:25:13;;;;;;;66.42;32.10;;;;;;;5.77;84.47;98275.53;1816035;78;21193;-82
2020/12/31 00:27:40;;;;;;;63.42;29.55;;;;;;;5.75;84.21;98272.14;1805537;79;21507;-82
2020/12/31 00:30:10;;;;;;;75.45;31.80;;;;;;;5.75;85.41;98264.84;1814634;78;21257;-81
2020/12/31 00:32:37;;;;;;;61.18;29.57;;;;;;;5.74;84.48;98265.71;1793769;79;21285;-82
2020/12/31 00:35:06;;;;;;;68.20;30.37;;;;;;;5.73;84.46;98270.02;1817353;78;21693;-82
2020/12/31 00:37:37;;;;;;;88.70;38.25;;;;;;;5.74;84.66;98262.69;1820125;78;21218;-82
2020/12/31 00:40:05;;;;;;;66.20;31.15;;;;;;;5.74;84.50;98263.13;1814591;78;21305;-82
2020/12/31 00:42:33;;;;;;;80.53;34.30;;;;;;;5.74;84.92;98263.97;1818564;78;21247;-81
2020/12/31 00:45:00;;;;;;;84.35;38.60;;;;;;;5.68;85.75;98259.38;1815018;78;21281;-81
2020/12/31 00:47:27;;;;;;;79.92;37.05;;;;;;;5.72;84.97;98259.28;1819632;78;21253;-81
2020/12/31 00:49:55;;;;;;;76.65;36.55;;;;;;;5.71;84.95;98261.47;1823665;78;21305;-82
2020/12/31 00:52:22;;;;;;;72.85;33.60;;;;;;;5.71;85.20;98264.46;1822310;77;21270;-81
2020/12/31 00:54:50;;;;;;;74.47;33.78;;;;;;;5.70;84.31;98275.67;1814981;78;21288;-81
2020/12/31 00:57:17;;;;;;;84.13;35.05;;;;;;;5.65;83.74;98260.71;1824854;78;21266;-81
2020/12/31 00:59:45;;;;;;;72.08;34.65;;;;;;;5.56;84.67;98257.88;1807432;74;21259;-90
2020/12/31 01:02:13;;;;;;;72.05;35.43;;;;;;;5.57;84.45;98264.72;1801585;77;21150;-89
2020/12/31 01:04:40;;;;;;;79.82;34.15;;;;;;;5.51;83.58;98259.67;1735349;81;21161;-87
2020/12/31 01:07:08;;;;;;;83.07;35.25;;;;;;;5.30;84.26;98238.56;1742170;80;21646;-87
2020/12/31 01:09:35;;;;;;;68.67;34.40;;;;;;;5.35;84.49;98266.83;1763479;80;21157;-85
2020/12/31 01:12:03;;;;;;;69.97;33.25;;;;;;;5.26;83.52;98272.16;1795081;79;21285;-83
2020/12/31 01:14:30;;;;;;;72.42;33.65;;;;;;;5.15;84.33;98263.30;1794341;79;21282;-84
2020/12/31 01:16:58;;;;;;;70.45;32.00;;;;;;;5.06;85.09;98260.89;1785366;80;21278;-84
2020/12/31 01:19:25;;;;;;;72.78;32.17;;;;;;;4.99;84.85;98258.84;1787886;78;21151;-85
2020/12/31 01:21:52;;;;;;;81.97;34.90;;;;;;;4.91;83.31;98257.66;1806968;79;21177;-84
2020/12/31 01:24:21;;;;;;;80.03;36.75;;;;;;;4.85;83.80;98251.33;1746613;82;21552;-83
2020/12/31 01:26:48;;;;;;;88.12;37.67;;;;;;;4.79;84.32;98247.56;1744151;82;21582;-83
2020/12/31 01:29:15;;;;;;;89.17;37.33;;;;;;;4.78;84.92;98248.45;1723814;82;21301;-84
2020/12/31 01:31:48;;;;;;;87.50;37.28;;;;;;;4.80;85.06;98249.72;1741970;82;21289;-82
2020/12/31 01:34:15;;;;;;;92.57;37.83;;;;;;;4.79;84.64;98243.70;1761859;80;21229;-83
2020/12/31 01:36:42;;;;;;;91.12;37.60;;;;;;;4.81;85.00;98252.69;1777186;77;21167;-84
2020/12/31 01:39:10;;;;;;;88.67;39.23;;;;;;;4.82;85.43;98264.27;1772792;78;21252;-84
2020/12/31 01:41:37;;;;;;;100.25;37.95;;;;;;;4.86;85.52;98267.20;1799508;77;21281;-85
2020/12/31 01:44:08;;;;;;;87.53;36.83;;;;;;;4.90;85.83;98262.86;1819863;75;21225;-84
2020/12/31 01:46:45;;;;;;;124.20;49.03;;;;;;;4.94;85.91;98260.20;1820455;78;21484;-83
2020/12/31 01:49:19;;;;;;;93.22;41.37;;;;;;;4.98;86.83;98257.99;1795830;79;21288;-84
2020/12/31 01:51:47;;;;;;;;;;;;;;;5.02;85.99;98260.09;1813631;79;21214;-84
2020/12/31 01:56:55;;;;;;;119.67;51.23;;;;;;;5.11;86.44;98261.66;1785369;79;22950;-89
2020/12/31 01:59:24;;;;;;;123.92;50.98;;;;;;;5.07;86.03;98269.02;1781455;79;21416;-82
2020/12/31 02:01:53;;;;;;;120.40;49.00;;;;;;;5.11;86.31;98259.08;1783122;78;21257;-83
2020/12/31 02:04:22;;;;;;;101.30;42.23;;;;;;;5.15;86.21;98253.87;1779791;79;21251;-83
2020/12/31 02:06:52;;;;;;;96.67;40.45;;;;;;;5.16;85.85;98254.27;1784396;80;21292;-83
2020/12/31 02:09:19;;;;;;;81.10;37.80;;;;;;;5.15;85.22;98253.00;1786329;80;21280;-83
2020/12/31 02:11:46;;;;;;;80.97;37.50;;;;;;;5.15;85.92;98257.73;1786386;79;21150;-84
2020/12/31 02:14:14;;;;;;;81.75;37.08;;;;;;;5.17;86.06;98255.11;1782213;79;21125;-83
2020/12/31 02:16:41;;;;;;;90.07;38.75;;;;;;;5.18;86.39;98245.23;1787887;79;21308;-83
2020/12/31 02:19:15;;;;;;;76.67;34.83;;;;;;;5.18;86.34;98242.65;1722536;82;21366;-83
2020/12/31 02:21:49;;;;;;;81.37;36.58;;;;;;;5.18;86.21;98237.05;1784232;80;21268;-84
2020/12/31 02:24:24;;;;;;;76.57;34.18;;;;;;;5.21;86.74;98241.29;1807853;78;22911;-88
2020/12/31 02:26:51;;;;;;;71.87;33.08;;;;;;;5.13;86.40;98236.30;1801770;79;21158;-89
2020/12/31 02:29:18;;;;;;;69.42;29.55;;;;;;;5.14;86.47;98241.00;1806787;79;21165;-89
2020/12/31 02:31:47;;;;;;;66.20;27.77;;;;;;;5.10;86.55;98238.91;1808259;79;21164;-88
2020/12/31 02:34:15;;;;;;;56.00;26.57;;;;;;;5.07;86.13;98242.81;1818012;79;21245;-84
2020/12/31 02:36:42;;;;;;;68.72;28.05;;;;;;;5.04;86.72;98236.44;1749221;82;21141;-85
2020/12/31 02:39:14;;;;;;;94.72;32.67;;;;;;;5.04;86.84;98242.03;1754970;78;21301;-84
2020/12/31 02:41:42;;;;;;;80.53;30.57;;;;;;;5.06;86.26;98241.58;1778769;79;21245;-84
2020/12/31 02:44:09;;;;;;;96.47;34.55;;;;;;;5.11;86.37;98239.75;1779730;81;21241;-84
2020/12/31 02:46:37;;;;;;;76.42;30.50;;;;;;;5.14;86.67;98234.56;1766291;78;21258;-84
2020/12/31 02:49:05;;;;;;;109.85;37.75;;;;;;;5.18;86.86;98233.19;1750355;82;21248;-83
2020/12/31 02:51:34;;;;;;;63.02;28.92;;;;;;;5.20;87.53;98229.30;1751224;81;21275;-82
2020/12/31 02:54:03;;;;;;;66.35;28.12;;;;;;;5.25;86.87;98224.93;1806290;77;21281;-84
2020/12/31 02:56:32;;;;;;;62.90;26.85;;;;;;;5.29;86.84;98226.58;1812886;79;21272;-83
2020/12/31 02:58:59;;;;;;;59.65;25.40;;;;;;;5.31;87.28;98226.11;1818560;79;21244;-84
2020/12/31 03:01:26;;;;;;;55.98;25.95;;;;;;;5.37;87.19;98213.52;1819741;79;21253;-84
2020/12/31 03:03:54;;;;;;;58.00;24.43;;;;;;;5.42;86.49;98210.44;1805465;79;21627;-83
2020/12/31 03:06:21;;;;;;;61.28;25.00;;;;;;;5.44;86.77;98203.52;1816712;77;21280;-84
2020/12/31 03:08:48;;;;;;;55.70;25.30;;;;;;;5.45;86.34;98202.66;1809467;77;21384;-84
2020/12/31 03:11:24;;;;;;;48.15;21.82;;;;;;;5.45;86.76;98205.23;1817931;79;21852;-83
2020/12/31 03:13:52;;;;;;;53.28;25.72;;;;;;;5.50;86.42;98204.69;1807904;79;21221;-84
2020/12/31 03:16:21;;;;;;;55.48;26.80;;;;;;;5.52;86.68;98208.54;1733282;81;21256;-84
2020/12/31 03:18:48;;;;;;;51.70;23.95;;;;;;;5.56;85.98;98207.59;1809146;79;21130;-84
2020/12/31 03:21:16;;;;;;;49.85;23.15;;;;;;;5.51;86.71;98206.41;1811668;78;21418;-84
2020/12/31 03:23:44;;;;;;;43.90;22.15;;;;;;;5.53;86.31;98206.35;1819302;79;21215;-83
2020/12/31 03:26:12;;;;;;;42.62;20.08;;;;;;;5.53;86.34;98203.77;1812651;79;21145;-84
2020/12/31 03:28:39;;;;;;;42.70;19.15;;;;;;;5.50;86.81;98202.56;1812876;79;21229;-85
2020/12/31 03:31:07;;;;;;;42.48;20.15;;;;;;;5.52;86.38;98200.35;1820095;79;21481;-84
2020/12/31 03:33:34;;;;;;;40.00;16.32;;;;;;;5.52;85.98;98200.35;1808648;78;21304;-84
2020/12/31 03:36:02;;;;;;;37.75;16.45;;;;;;;5.53;85.64;98203.77;1804502;79;21245;-84
2020/12/31 03:38:29;;;;;;;32.75;16.07;;;;;;;5.50;85.96;98198.69;1813851;79;21292;-83
2020/12/31 03:40:57;;;;;;;38.35;16.40;;;;;;;5.52;86.08;98199.06;1805483;79;21252;-84
2020/12/31 03:43:24;;;;;;;43.90;16.48;;;;;;;5.55;85.81;98203.30;1813546;78;21255;-84
2020/12/31 03:45:51;;;;;;;39.40;16.57;;;;;;;5.58;85.54;98209.70;1811604;79;21150;-83
2020/12/31 03:48:19;;;;;;;45.83;17.80;;;;;;;5.61;85.53;98203.22;1820114;79;21142;-84
2020/12/31 03:50:46;;;;;;;38.80;16.42;;;;;;;5.65;85.46;98209.14;1793450;79;21268;-83
2020/12/31 03:53:13;;;;;;;38.00;16.10;;;;;;;5.63;85.27;98201.45;1805342;79;21268;-84
2020/12/31 03:55:41;;;;;;;36.40;16.50;;;;;;;5.70;85.33;98203.46;1817067;79;21252;-83
2020/12/31 03:58:08;;;;;;;45.67;17.77;;;;;;;5.71;85.21;98193.54;1816258;78;21606;-84
2020/12/31 04:00:35;;;;;;;40.88;17.15;;;;;;;5.69;85.08;98193.59;1794445;79;21294;-83
2020/12/31 04:03:03;;;;;;;34.67;17.05;;;;;;;5.73;85.13;98193.06;1735466;82;21170;-84
2020/12/31 04:05:30;;;;;;;35.23;16.93;;;;;;;5.77;85.07;98193.45;1816465;78;21253;-85
2020/12/31 04:07:58;;;;;;;35.90;16.97;;;;;;;5.76;84.85;98190.00;1808721;78;21291;-84
2020/12/31 04:10:26;;;;;;;36.88;16.87;;;;;;;5.77;84.85;98187.00;1817095;79;21283;-84
2020/12/31 04:12:53;;;;;;;38.92;17.40;;;;;;;5.77;84.62;98195.58;1819560;79;21141;-84
2020/12/31 04:15:21;;;;;;;40.00;17.55;;;;;;;5.75;84.86;98184.89;1748380;82;21154;-84
2020/12/31 04:17:48;;;;;;;35.43;18.00;;;;;;;5.76;84.69;98182.70;1819949;79;21300;-83
2020/12/31 04:20:15;;;;;;;33.88;17.05;;;;;;;5.77;84.62;98189.58;1790632;79;21257;-84
2020/12/31 04:22:43;;;;;;;35.92;17.70;;;;;;;5.76;84.67;98179.68;1812809;79;21102;-82
2020/12/31 04:25:10;;;;;;;44.65;20.40;;;;;;;5.74;84.53;98176.28;1809419;79;21240;-83
2020/12/31 04:27:37;;;;;;;39.95;18.45;;;;;;;5.74;84.29;98168.99;1816406;79;21118;-83
2020/12/31 04:30:06;;;;;;;39.83;19.27;;;;;;;5.70;84.16;98160.91;1749264;82;21301;-84
2020/12/31 04:32:33;;;;;;;39.40;18.35;;;;;;;5.67;83.98;98157.97;1750641;82;21236;-83
2020/12/31 04:35:00;;;;;;;34.65;18.15;;;;;;;5.61;84.84;98156.80;1742240;81;21281;-83
2020/12/31 04:37:28;;;;;;;40.98;18.48;;;;;;;5.55;85.24;98146.58;1754808;82;21292;-84
2020/12/31 04:39:55;;;;;;;36.77;16.35;;;;;;;5.54;84.83;98148.32;1786738;80;21289;-85
2020/12/31 04:42:36;;;;;;;32.50;15.25;;;;;;;5.54;84.88;98152.19;1765489;81;21327;-85
2020/12/31 04:45:06;;;;;;;34.73;16.10;;;;;;;5.54;85.03;98146.19;1761434;81;21131;-86
2020/12/31 04:47:46;;;;;;;32.45;15.48;;;;;;;5.53;85.20;98147.05;1804557;79;21542;-85
2020/12/31 04:50:15;;;;;;;32.75;15.13;;;;;;;5.55;84.84;98146.16;1811577;77;21272;-84
2020/12/31 04:52:42;;;;;;;26.55;13.88;;;;;;;5.57;85.04;98144.82;1798464;79;21146;-85
2020/12/31 04:55:10;;;;;;;32.93;13.90;;;;;;;5.61;85.29;98149.48;1810528;79;21272;-84
2020/12/31 04:57:38;;;;;;;33.08;14.05;;;;;;;5.64;85.18;98145.56;1750781;81;21334;-84
2020/12/31 05:00:06;;;;;;;28.40;13.15;;;;;;;5.69;85.02;98144.59;1752237;81;21302;-84
2020/12/31 05:02:33;;;;;;;32.13;13.45;;;;;;;5.68;85.11;98133.86;1763158;80;21334;-84
2020/12/31 05:05:01;;;;;;;25.43;12.95;;;;;;;5.68;85.22;98132.57;1755048;82;21269;-84
2020/12/31 05:07:28;;;;;;;26.35;12.58;;;;;;;5.70;85.15;98135.97;1816533;79;21153;-85
2020/12/31 05:10:10;;;;;;;26.07;13.18;;;;;;;5.77;84.82;98123.36;1812725;79;21241;-83
2020/12/31 05:12:38;;;;;;;33.40;13.30;;;;;;;5.70;84.64;98124.36;1742728;82;21253;-84
2020/12/31 05:15:05;;;;;;;27.02;12.78;;;;;;;5.70;84.55;98129.52;1772115;78;21235;-84
2020/12/31 05:17:33;;;;;;;26.33;13.48;;;;;;;5.63;84.51;98131.83;1763891;81;21550;-85
2020/12/31 05:20:14;;;;;;;24.92;12.93;;;;;;;5.67;84.38;98141.20;1762382;81;21249;-84
2020/12/31 05:22:41;;;;;;;27.87;13.88;;;;;;;5.70;84.24;98142.86;1760649;81;21199;-85
2020/12/31 05:25:08;;;;;;;27.55;13.03;;;;;;;5.62;84.30;98146.88;1771424;80;21322;-85
2020/12/31 05:27:36;;;;;;;28.25;12.82;;;;;;;5.61;84.01;98147.78;1789924;80;21679;-83
2020/12/31 05:30:08;;;;;;;25.12;13.08;;;;;;;5.57;84.36;98154.72;1748782;82;21264;-85
2020/12/31 05:32:44;;;;;;;22.73;11.60;;;;;;;5.64;84.18;98153.30;1830799;76;23469;-89
2020/12/31 05:35:15;;;;;;;26.57;11.03;;;;;;;5.58;83.91;98149.95;1807676;79;21279;-83
2020/12/31 05:37:44;;;;;;;21.25;10.03;;;;;;;5.59;84.07;98144.38;1818539;79;21259;-84
2020/12/31 05:40:13;;;;;;;25.48;10.40;;;;;;;5.64;83.90;98146.86;1808985;79;21156;-84
2020/12/31 05:42:43;;;;;;;16.60;9.20;;;;;;;5.68;84.02;98151.07;1806817;79;21243;-84
2020/12/31 05:45:24;;;;;;;19.37;9.68;;;;;;;5.72;84.19;98152.25;1790907;79;21315;-83
2020/12/31 05:47:54;;;;;;;27.05;10.80;;;;;;;5.75;84.31;98150.08;1810743;79;21267;-83
2020/12/31 05:50:26;;;;;;;23.45;10.18;;;;;;;5.78;84.08;98146.97;1799751;79;21293;-83
2020/12/31 05:53:01;;;;;;;24.87;10.35;;;;;;;5.88;84.06;98148.91;1799473;78;22888;-89
2020/12/31 05:55:31;;;;;;;20.60;9.80;;;;;;;5.88;84.00;98160.52;1715401;83;21189;-88
2020/12/31 05:57:58;;;;;;;25.00;10.10;;;;;;;5.92;83.97;98157.44;1666573;81;22028;-90
2020/12/31 06:00:29;;;;;;;20.85;10.82;;;;;;;5.94;83.75;98155.68;1651460;85;21262;-84
2020/12/31 06:03:00;;;;;;;24.10;10.45;;;;;;;5.98;83.87;98159.92;1693823;81;21245;-85
2020/12/31 06:05:29;;;;;;;24.05;11.95;;;;;;;5.84;83.88;98127.94;1653029;85;21278;-83
2020/12/31 06:07:58;;;;;;;24.52;12.05;;;;;;;6.06;83.52;98159.31;1658192;79;21176;-86
2020/12/31 06:10:31;;;;;;;28.25;13.22;;;;;;;6.07;83.27;98162.31;1631622;86;21242;-84
2020/12/31 06:13:05;;;;;;;26.17;12.23;;;;;;;6.01;83.33;98156.41;1654731;87;21328;-84
2020/12/31 06:15:35;;;;;;;31.33;13.50;;;;;;;5.98;83.42;98159.47;1654649;84;21280;-84
2020/12/31 06:18:05;;;;;;;27.32;12.60;;;;;;;5.94;83.11;98153.94;1644204;87;21260;-85
2020/12/31 06:20:38;;;;;;;28.25;12.95;;;;;;;5.92;83.38;98158.73;1646307;86;21260;-83
2020/12/31 06:23:14;;;;;;;;;;;;;;;5.90;83.34;98161.78;1661665;86;21249;-84
2020/12/31 06:25:46;;;;;;;31.57;13.60;;;;;;;5.86;83.60;98150.67;1655511;85;20295;-83
2020/12/31 06:28:22;;;;;;;29.37;13.33;;;;;;;5.82;83.84;98141.76;1654186;86;21307;-83
2020/12/31 06:30:55;;;;;;;29.72;13.05;;;;;;;5.76;84.03;98138.41;1650896;86;21924;-83
2020/12/31 06:33:33;;;;;;;24.60;12.82;;;;;;;5.74;84.02;98141.91;1664468;84;21556;-82
2020/12/31 06:36:03;;;;;;;34.03;13.95;;;;;;;5.74;83.86;98138.89;1658701;86;21264;-84
2020/12/31 06:38:48;;;;;;;26.23;11.60;;;;;;;5.73;83.67;98139.78;1640866;87;21312;-84
2020/12/31 06:41:41;;;;;;;25.88;11.55;;;;;;;5.73;83.89;98126.89;1656599;86;21280;-83
2020/12/31 06:44:12;;;;;;;25.45;11.28;;;;;;;5.76;83.89;98124.67;1660940;84;21272;-83
2020/12/31 06:46:43;;;;;;;31.20;11.90;;;;;;;5.81;83.78;98136.17;1662280;85;21305;-83
2020/12/31 06:49:11;;;;;;;33.30;12.07;;;;;;;5.81;83.89;98131.89;1677822;83;21489;-84
2020/12/31 06:51:39;;;;;;;24.37;11.95;;;;;;;5.81;84.02;98127.15;1665860;86;21264;-84
2020/12/31 06:54:07;;;;;;;32.42;14.03;;;;;;;5.85;83.87;98124.49;1663361;86;22126;-83
2020/12/31 06:56:49;;;;;;;27.70;13.10;;;;;;;5.86;83.89;98116.30;1658133;86;21144;-84
2020/12/31 06:59:38;;;;;;;24.57;12.47;;;;;;;5.86;83.98;98115.02;1668616;84;21169;-83
2020/12/31 07:02:16;;;;;;;30.88;13.70;;;;;;;5.92;83.97;98104.56;1670813;83;21123;-84
2020/12/31 07:04:44;;;;;;;26.17;11.22;;;;;;;5.93;83.78;98106.27;1660024;85;21256;-84
2020/12/31 07:07:24;;;;;;;21.05;11.45;;;;;;;5.99;83.75;98122.94;1658597;85;21337;-83
2020/12/31 07:10:01;;;;;;;24.98;12.00;;;;;;;6.04;83.59;98125.41;1645319;87;21611;-84
2020/12/31 07:12:39;;;;;;;23.47;11.12;;;;;;;6.09;83.36;98125.70;1655274;86;21519;-82
2020/12/31 07:15:10;;;;;;;19.40;11.12;;;;;;;6.14;83.32;98117.86;1650904;85;21303;-82
2020/12/31 07:17:46;;;;;;;22.17;10.68;;;;;;;6.19;83.37;98110.87;1652535;86;21848;-82
2020/12/31 07:20:18;;;;;;;32.88;13.45;;;;;;;6.25;83.11;98103.43;1648534;86;21144;-83
2020/12/31 07:22:50;;;;;;;30.95;13.62;;;;;;;6.34;82.78;98104.48;1648718;82;21195;-83
2020/12/31 07:25:19;;;;;;;25.20;11.78;;;;;;;6.37;82.86;98112.16;1640975;87;21369;-83
2020/12/31 07:27:48;;;;;;;24.67;11.95;;;;;;;6.42;82.49;98110.75;1652949;86;21300;-84
2020/12/31 07:30:21;;;;;;;21.50;11.63;;;;;;;6.28;82.37;98076.23;1678362;83;21207;-84
2020/12/31 07:33:06;;;;;;;20.43;10.28;;;;;;;6.51;82.12;98095.05;1827730;75;22985;-85
2020/12/31 07:35:41;;;;;;;32.53;11.57;;;;;;;6.48;82.07;98095.95;1802307;79;21153;-83
2020/12/31 07:38:14;;;;;;;27.70;11.57;;;;;;;6.51;81.97;98097.63;1801646;77;21109;-82
2020/12/31 07:40:53;;;;;;;24.07;10.55;;;;;;;6.55;82.10;98101.38;1802231;79;21246;-83
2020/12/31 07:43:27;;;;;;;25.15;9.95;;;;;;;6.61;82.01;98096.97;1795940;79;21226;-82
2020/12/31 07:46:00;;;;;;;22.13;10.20;;;;;;;6.66;81.83;98095.09;1795121;79;21152;-82
2020/12/31 07:48:30;;;;;;;22.55;10.32;;;;;;;6.65;81.38;98090.38;1795336;79;21481;-82
2020/12/31 07:51:02;;;;;;;23.22;10.53;;;;;;;6.72;81.67;98091.91;1806393;79;21248;-82
2020/12/31 07:53:30;;;;;;;22.60;9.25;;;;;;;6.77;81.65;98097.81;1810731;79;21112;-82
2020/12/31 07:55:59;;;;;;;20.90;10.63;;;;;;;6.82;81.54;98106.73;1798095;79;21272;-82
2020/12/31 07:58:29;;;;;;;22.00;11.48;;;;;;;6.86;81.46;98108.80;1805395;79;21251;-84
2020/12/31 08:01:07;;;;;;;22.60;11.18;;;;;;;6.81;81.13;98097.75;1793219;79;21284;-84
2020/12/31 08:03:35;;;;;;;22.17;11.78;;;;;;;6.83;81.15;98093.39;1814124;79;21080;-83
2020/12/31 08:06:04;;;;;;;25.23;11.43;;;;;;;6.83;81.10;98089.06;1798440;79;21283;-83
2020/12/31 08:08:34;;;;;;;25.25;11.10;;;;;;;6.90;81.14;98087.16;1815915;79;21074;-84
2020/12/31 08:11:10;;;;;;;25.45;11.93;;;;;;;6.85;80.94;98081.28;1785808;80;21183;-83
2020/12/31 08:13:37;;;;;;;28.75;12.25;;;;;;;6.90;80.80;98088.02;1773147;78;21236;-83
2020/12/31 08:16:08;;;;;;;28.45;12.68;;;;;;;6.90;80.66;98082.86;1765380;78;21117;-83
2020/12/31 08:18:37;;;;;;;32.93;13.13;;;;;;;6.93;80.94;98086.63;1754087;77;21280;-90
2020/12/31 08:21:05;;;;;;;30.77;13.32;;;;;;;6.95;80.64;98080.14;1737303;78;21568;-87
2020/12/31 08:23:37;;;;;;;22.52;11.38;;;;;;;6.98;80.54;98077.45;1723699;82;21147;-84
2020/12/31 08:26:14;;;;;;;32.38;13.22;;;;;;;7.01;80.48;98073.97;1762020;81;21161;-83
2020/12/31 08:28:45;;;;;;;28.07;12.15;;;;;;;7.02;80.58;98084.23;1741827;82;21272;-82
2020/12/31 08:31:16;;;;;;;23.77;11.05;;;;;;;7.09;80.75;98087.07;1757945;81;21302;-82
2020/12/31 08:33:44;;;;;;;29.12;11.05;;;;;;;7.10;79.98;98078.86;1755259;81;21244;-83
2020/12/31 08:36:21;;;;;;;18.20;10.00;;;;;;;7.22;80.80;98086.31;1752967;81;21255;-83
2020/12/31 08:39:00;;;;;;;27.77;11.48;;;;;;;7.39;80.32;98079.81;1802923;78;22675;-84
2020/12/31 08:41:26;;;;;;;29.37;12.00;;;;;;;7.43;80.69;98071.07;1740926;82;21284;-82
2020/12/31 08:43:55;;;;;;;31.60;14.60;;;;;;;7.48;79.75;98073.06;1763967;81;21260;-85
2020/12/31 08:46:23;;;;;;;29.85;14.03;;;;;;;7.52;79.30;98057.85;1740389;82;21268;-83
2020/12/31 08:48:56;;;;;;;33.28;13.83;;;;;;;7.60;79.70;98049.45;1799357;79;21288;-83
2020/12/31 08:51:29;;;;;;;33.90;13.48;;;;;;;7.58;79.14;98048.65;1767318;81;21178;-82
2020/12/31 08:54:03;;;;;;;26.77;13.27;;;;;;;7.51;78.62;98053.14;1805347;78;21266;-92
2020/12/31 08:56:32;;;;;;;27.75;12.28;;;;;;;7.50;78.85;98052.75;1759508;79;21840;-94
2020/12/31 08:59:16;;;;;;;28.60;12.50;;;;;;;7.49;78.74;98053.62;1764349;80;21247;-92
2020/12/31 09:01:46;;;;;;;26.40;11.70;;;;;;;7.48;78.69;98054.53;1793597;78;21176;-92
2020/12/31 09:04:22;;;;;;;24.72;10.05;;;;;;;7.50;78.25;98057.92;1802724;78;21251;-86
2020/12/31 09:06:57;;;;;;;26.15;11.40;;;;;;;7.50;78.07;98052.75;1802722;79;21243;-85
2020/12/31 09:09:28;;;;;;;25.23;11.65;;;;;;;7.54;78.26;98056.06;1749436;80;21166;-92
2020/12/31 09:12:03;;;;;;;26.23;11.45;;;;;;;7.61;78.31;98052.88;1726098;79;21804;-91
2020/12/31 09:14:58;;;;;;;31.62;12.07;;;;;;;7.69;78.20;98055.62;1786957;79;21291;-92
2020/12/31 09:17:26;;;;;;;27.65;12.80;;;;;;;7.76;78.21;98051.97;1703175;78;21147;-91
2020/12/31 09:19:55;;;;;;;27.82;12.98;;;;;;;7.90;78.84;98046.38;1679121;84;21177;-92
2020/12/31 09:22:26;;;;;;;29.92;12.63;;;;;;;7.99;79.31;98052.98;1691276;81;21207;-91
2020/12/31 09:24:55;;;;;;;27.20;11.90;;;;;;;8.08;78.59;98048.83;1672213;81;21377;-91
2020/12/31 09:27:25;;;;;;;30.90;13.53;;;;;;;8.28;79.41;98056.41;1707856;80;21304;-92
2020/12/31 09:30:00;;;;;;;31.23;14.60;;;;;;;8.43;78.90;98049.44;1704028;80;21216;-92
2020/12/31 09:32:29;;;;;;;27.90;15.03;;;;;;;8.56;78.17;98049.44;1713161;80;22135;-92
2020/12/31 09:35:02;;;;;;;32.00;15.48;;;;;;;8.58;77.57;98035.61;1754002;80;21160;-93
2020/12/31 09:37:30;;;;;;;34.85;16.85;;;;;;;8.68;78.29;98043.45;1742646;78;21455;-91
2020/12/31 09:39:57;;;;;;;29.82;15.05;;;;;;;8.71;77.94;98045.50;1742711;80;21335;-92
2020/12/31 09:42:24;;;;;;;33.35;15.78;;;;;;;8.71;77.63;98035.13;1751741;81;21518;-92
2020/12/31 09:44:52;;;;;;;28.27;16.07;;;;;;;8.76;78.05;98040.98;1754287;81;21300;-92
2020/12/31 09:47:19;;;;;;;33.13;16.07;;;;;;;8.82;77.94;98029.56;1742302;81;21764;-90
2020/12/31 09:49:46;;;;;;;42.25;17.02;;;;;;;8.87;78.04;98042.36;1745188;82;21595;-93
2020/12/31 09:52:14;;;;;;;38.48;18.37;;;;;;;8.91;77.99;98033.14;1753352;81;21341;-92
2020/12/31 09:54:41;;;;;;;37.53;18.60;;;;;;;8.93;77.99;98023.99;1711418;83;21299;-91
2020/12/31 09:57:08;;;;;;;38.17;19.20;;;;;;;8.93;77.61;98011.03;1750027;81;21165;-93
2020/12/31 09:59:36;;;;;;;35.48;17.82;;;;;;;8.88;77.70;98007.77;1754522;81;21284;-92
2020/12/31 10:02:04;;;;;;;34.98;18.17;;;;;;;8.88;77.88;98018.98;1759354;79;21272;-92
2020/12/31 10:04:31;;;;;;;153.97;61.80;;;;;;;8.89;78.17;98018.52;1758749;81;21141;-91
2020/12/31 10:06:59;;;;;;;231.90;101.55;;;;;;;8.91;78.17;98021.48;1743275;77;21176;-92
2020/12/31 10:09:26;;;;;;;57.40;25.00;;;;;;;9.00;78.30;98023.34;1729583;82;21298;-92
2020/12/31 10:11:54;;;;;;;57.48;24.92;;;;;;;9.01;77.81;98019.83;1699711;82;21188;-91
2020/12/31 10:14:22;;;;;;;83.72;39.65;;;;;;;9.02;77.92;98024.13;1739217;82;21157;-88
2020/12/31 10:16:50;;;;;;;70.08;33.78;;;;;;;9.06;77.99;98023.95;1718286;84;21144;-85
2020/12/31 10:19:18;;;;;;;51.18;23.10;;;;;;;9.10;78.07;98032.02;1730378;79;21172;-86
2020/12/31 10:21:50;;;;;;;55.35;24.52;;;;;;;9.11;77.96;98017.30;1727326;78;21192;-86
2020/12/31 10:24:17;;;;;;;34.65;17.27;;;;;;;9.16;78.15;98012.34;1741516;82;21285;-86
2020/12/31 10:26:46;;;;;;;31.00;15.00;;;;;;;9.04;77.84;97983.44;1734573;81;21247;-88
2020/12/31 10:29:15;;;;;;;35.38;15.23;;;;;;;9.32;78.03;98011.33;1747356;80;21211;-87
2020/12/31 10:31:45;;;;;;;42.65;20.05;;;;;;;9.40;77.43;98004.56;1747919;79;21211;-85
2020/12/31 10:34:12;;;;;;;42.27;18.45;;;;;;;9.48;77.43;98001.22;1746199;82;21532;-86
2020/12/31 10:36:39;;;;;;;39.60;19.55;;;;;;;9.57;77.19;98013.02;1747405;82;21244;-86
2020/12/31 10:39:07;;;;;;;40.10;17.73;;;;;;;9.61;77.00;98005.50;1748040;81;21278;-87
2020/12/31 10:41:34;;;;;;;35.80;17.98;;;;;;;9.66;76.87;97993.17;1738730;81;21274;-86
2020/12/31 10:44:02;;;;;;;47.73;22.17;;;;;;;9.71;76.80;97980.05;1744076;82;21251;-88
2020/12/31 10:46:30;;;;;;;41.08;17.65;;;;;;;9.72;76.52;97977.82;1747839;82;21263;-86
2020/12/31 10:48:59;;;;;;;38.78;20.02;;;;;;;9.74;76.23;97979.44;1746176;82;21250;-86
2020/12/31 10:51:26;;;;;;;29.67;14.47;;;;;;;9.76;75.67;97978.09;1727486;82;21144;-87
2020/12/31 10:53:53;;;;;;;36.42;18.52;;;;;;;9.74;75.76;97971.66;1723363;82;21128;-86
2020/12/31 10:56:21;;;;;;;29.50;14.47;;;;;;;9.69;75.86;97970.17;1737099;82;21227;-87
2020/12/31 10:58:48;;;;;;;28.25;15.55;;;;;;;9.65;75.13;97970.74;1748007;82;21271;-86
2020/12/31 11:01:15;;;;;;;36.77;15.28;;;;;;;9.62;75.19;97974.74;1740667;78;21567;-85
2020/12/31 11:03:43;;;;;;;30.77;13.62;;;;;;;9.63;75.29;97983.36;1747768;81;21104;-86
2020/12/31 11:06:24;;;;;;;24.55;13.28;;;;;;;9.60;75.47;97978.31;1717574;81;21279;-84
2020/12/31 11:08:53;;;;;;;27.90;13.10;;;;;;;9.56;75.23;97982.77;1729433;82;21204;-86
2020/12/31 11:11:29;;;;;;;26.85;12.33;;;;;;;9.52;75.13;97988.98;1723114;83;21264;-86
2020/12/31 11:13:57;;;;;;;31.52;15.00;;;;;;;9.43;75.00;97990.19;1724208;81;21234;-86
2020/12/31 11:16:25;;;;;;;34.20;17.17;;;;;;;9.36;75.22;97984.37;1718735;81;21291;-88
2020/12/31 11:18:53;;;;;;;34.83;15.48;;;;;;;9.31;75.31;97982.84;1729387;80;21430;-86
2020/12/31 11:21:21;;;;;;;43.52;19.07;;;;;;;9.23;75.79;97983.16;1702371;83;21196;-85
2020/12/31 11:23:48;;;;;;;35.92;16.48;;;;;;;9.22;75.95;97976.27;1722607;79;21263;-90
2020/12/31 11:26:20;;;;;;;38.35;15.68;;;;;;;9.20;76.35;97978.53;1768308;80;22057;-92
2020/12/31 11:28:51;;;;;;;39.13;19.07;;;;;;;9.22;76.34;97980.16;1794729;79;21216;-86
2020/12/31 11:31:30;;;;;;;33.53;16.62;;;;;;;9.27;76.59;97974.79;1780725;80;21289;-86
2020/12/31 11:34:02;;;;;;;38.95;17.07;;;;;;;9.30;76.72;97963.85;1740699;81;22016;-86
2020/12/31 11:36:30;;;;;;;43.00;17.60;;;;;;;9.39;76.88;97968.30;1798212;78;21288;-86
2020/12/31 11:38:57;;;;;;;37.33;16.42;;;;;;;9.48;77.28;97968.78;1777540;78;21268;-91
2020/12/31 11:41:28;;;;;;;44.83;21.77;;;;;;;9.60;77.33;97973.13;1772077;81;21268;-92